sensor_id;sensor_type;location;lat;lon;timestamp;temperature;humidity
21493;DHT22;10908;50.690;4.400;2023-06-14T00:00:39;20.20;48.40
21493;DHT22;10908;50.690;4.400;2023-06-14T00:03:08;20.10;48.10
21493;DHT22;10908;50.690;4.400;2023-06-14T00:05:36;20.30;48.20
21493;DHT22;10908;50.690;4.400;2023-06-14T00:08:06;20.10;48.60
21493;DHT22;10908;50.690;4.400;2023-06-14T00:10:34;20.10;49.10
21493;DHT22;10908;50.690;4.400;2023-06-14T00:13:01;20.10;49.40
21493;DHT22;10908;50.690;4.400;2023-06-14T00:15:28;20.00;49.00
21493;DHT22;10908;50.690;4.400;2023-06-14T00:17:53;20.10;49.80
21493;DHT22;10908;50.690;4.400;2023-06-14T00:20:20;20.10;49.40
21493;DHT22;10908;50.690;4.400;2023-06-14T00:22:46;19.90;49.30
21493;DHT22;10908;50.690;4.400;2023-06-14T00:25:11;20.00;50.80
21493;DHT22;10908;50.690;4.400;2023-06-14T00:27:37;19.80;51.00
21493;DHT22;10908;50.690;4.400;2023-06-14T00:30:03;19.80;50.70
21493;DHT22;10908;50.690;4.400;2023-06-14T00:32:29;19.80;51.30
21493;DHT22;10908;50.690;4.400;2023-06-14T00:34:55;19.70;51.50
21493;DHT22;10908;50.690;4.400;2023-06-14T00:37:21;19.60;51.30
21493;DHT22;10908;50.690;4.400;2023-06-14T00:39:46;19.70;50.90
21493;DHT22;10908;50.690;4.400;2023-06-14T00:42:26;19.60;50.00
21493;DHT22;10908;50.690;4.400;2023-06-14T00:44:52;19.60;50.70
21493;DHT22;10908;50.690;4.400;2023-06-14T00:47:17;19.60;50.00
21493;DHT22;10908;50.690;4.400;2023-06-14T00:49:45;19.50;51.00
21493;DHT22;10908;50.690;4.400;2023-06-14T00:52:11;19.50;49.80
21493;DHT22;10908;50.690;4.400;2023-06-14T00:54:39;19.50;49.90
21493;DHT22;10908;50.690;4.400;2023-06-14T00:57:05;19.40;50.30
21493;DHT22;10908;50.690;4.400;2023-06-14T00:59:31;19.30;51.00
21493;DHT22;10908;50.690;4.400;2023-06-14T01:01:57;19.30;51.10
21493;DHT22;10908;50.690;4.400;2023-06-14T01:04:22;19.20;51.30
21493;DHT22;10908;50.690;4.400;2023-06-14T01:09:29;19.30;51.20
21493;DHT22;10908;50.690;4.400;2023-06-14T01:12:03;19.30;51.30
21493;DHT22;10908;50.690;4.400;2023-06-14T01:14:31;19.40;50.80
21493;DHT22;10908;50.690;4.400;2023-06-14T01:16:58;19.40;50.90
21493;DHT22;10908;50.690;4.400;2023-06-14T01:19:26;19.40;51.10
21493;DHT22;10908;50.690;4.400;2023-06-14T01:21:55;19.30;51.60
21493;DHT22;10908;50.690;4.400;2023-06-14T01:24:21;19.20;52.00
21493;DHT22;10908;50.690;4.400;2023-06-14T01:26:54;19.20;51.90
21493;DHT22;10908;50.690;4.400;2023-06-14T01:29:23;19.10;52.40
21493;DHT22;10908;50.690;4.400;2023-06-14T01:31:50;19.10;52.00
21493;DHT22;10908;50.690;4.400;2023-06-14T01:34:16;19.20;52.40
21493;DHT22;10908;50.690;4.400;2023-06-14T01:36:43;19.20;52.30
21493;DHT22;10908;50.690;4.400;2023-06-14T01:39:14;19.10;52.20
21493;DHT22;10908;50.690;4.400;2023-06-14T01:41:40;19.10;52.40
21493;DHT22;10908;50.690;4.400;2023-06-14T01:44:06;19.00;52.90
21493;DHT22;10908;50.690;4.400;2023-06-14T01:46:32;19.00;52.30
21493;DHT22;10908;50.690;4.400;2023-06-14T01:48:59;18.90;52.30
21493;DHT22;10908;50.690;4.400;2023-06-14T01:51:25;18.80;53.50
21493;DHT22;10908;50.690;4.400;2023-06-14T01:53:51;18.80;53.20
21493;DHT22;10908;50.690;4.400;2023-06-14T01:56:16;18.80;53.10
21493;DHT22;10908;50.690;4.400;2023-06-14T01:58:42;18.80;53.20
21493;DHT22;10908;50.690;4.400;2023-06-14T02:01:08;18.70;53.70
21493;DHT22;10908;50.690;4.400;2023-06-14T02:03:34;18.70;53.70
21493;DHT22;10908;50.690;4.400;2023-06-14T02:06:00;18.60;53.60
21493;DHT22;10908;50.690;4.400;2023-06-14T02:08:26;18.50;53.60
21493;DHT22;10908;50.690;4.400;2023-06-14T02:10:52;18.40;54.10
21493;DHT22;10908;50.690;4.400;2023-06-14T02:13:17;18.50;53.80
21493;DHT22;10908;50.690;4.400;2023-06-14T02:15:43;18.40;53.80
21493;DHT22;10908;50.690;4.400;2023-06-14T02:18:10;18.60;53.10
21493;DHT22;10908;50.690;4.400;2023-06-14T02:20:36;18.70;52.90
21493;DHT22;10908;50.690;4.400;2023-06-14T02:23:02;18.80;52.80
21493;DHT22;10908;50.690;4.400;2023-06-14T02:25:28;18.90;52.60
21493;DHT22;10908;50.690;4.400;2023-06-14T02:27:54;18.80;53.40
21493;DHT22;10908;50.690;4.400;2023-06-14T02:30:20;18.80;53.20
21493;DHT22;10908;50.690;4.400;2023-06-14T02:32:46;18.70;53.50
21493;DHT22;10908;50.690;4.400;2023-06-14T02:35:14;18.50;53.30
21493;DHT22;10908;50.690;4.400;2023-06-14T02:37:39;18.60;53.70
21493;DHT22;10908;50.690;4.400;2023-06-14T02:40:06;18.60;53.40
21493;DHT22;10908;50.690;4.400;2023-06-14T02:42:31;18.50;53.50
21493;DHT22;10908;50.690;4.400;2023-06-14T02:44:57;18.40;54.30
21493;DHT22;10908;50.690;4.400;2023-06-14T02:47:23;18.30;54.20
21493;DHT22;10908;50.690;4.400;2023-06-14T02:49:49;18.40;54.10
21493;DHT22;10908;50.690;4.400;2023-06-14T02:52:16;18.40;54.00
21493;DHT22;10908;50.690;4.400;2023-06-14T02:54:41;18.30;54.20
21493;DHT22;10908;50.690;4.400;2023-06-14T02:57:07;18.40;54.00
21493;DHT22;10908;50.690;4.400;2023-06-14T02:59:34;18.40;54.10
21493;DHT22;10908;50.690;4.400;2023-06-14T03:01:59;18.40;53.90
21493;DHT22;10908;50.690;4.400;2023-06-14T03:04:25;18.40;54.40
21493;DHT22;10908;50.690;4.400;2023-06-14T03:06:52;18.40;54.30
21493;DHT22;10908;50.690;4.400;2023-06-14T03:09:19;18.20;54.50
21493;DHT22;10908;50.690;4.400;2023-06-14T03:11:45;18.30;54.70
21493;DHT22;10908;50.690;4.400;2023-06-14T03:14:10;18.40;54.20
21493;DHT22;10908;50.690;4.400;2023-06-14T03:16:37;18.10;54.80
21493;DHT22;10908;50.690;4.400;2023-06-14T03:19:02;18.10;55.10
21493;DHT22;10908;50.690;4.400;2023-06-14T03:21:28;18.20;54.70
21493;DHT22;10908;50.690;4.400;2023-06-14T03:23:54;18.20;54.90
21493;DHT22;10908;50.690;4.400;2023-06-14T03:26:20;18.10;55.20
21493;DHT22;10908;50.690;4.400;2023-06-14T03:28:46;18.20;55.50
21493;DHT22;10908;50.690;4.400;2023-06-14T03:31:12;18.10;55.80
21493;DHT22;10908;50.690;4.400;2023-06-14T03:33:39;18.00;56.20
21493;DHT22;10908;50.690;4.400;2023-06-14T03:36:05;17.90;56.50
21493;DHT22;10908;50.690;4.400;2023-06-14T03:38:32;18.10;56.00
21493;DHT22;10908;50.690;4.400;2023-06-14T03:40:58;17.90;56.30
21493;DHT22;10908;50.690;4.400;2023-06-14T03:43:23;17.80;56.70
21493;DHT22;10908;50.690;4.400;2023-06-14T03:45:49;17.80;57.10
21493;DHT22;10908;50.690;4.400;2023-06-14T03:48:15;17.60;57.40
21493;DHT22;10908;50.690;4.400;2023-06-14T03:50:40;17.60;57.80
21493;DHT22;10908;50.690;4.400;2023-06-14T03:53:08;17.80;57.40
21493;DHT22;10908;50.690;4.400;2023-06-14T03:55:33;18.10;56.80
21493;DHT22;10908;50.690;4.400;2023-06-14T03:58:00;18.10;56.20
21493;DHT22;10908;50.690;4.400;2023-06-14T04:00:26;18.00;56.30
21493;DHT22;10908;50.690;4.400;2023-06-14T04:02:52;17.70;57.30
21493;DHT22;10908;50.690;4.400;2023-06-14T04:05:18;17.50;58.10
21493;DHT22;10908;50.690;4.400;2023-06-14T04:07:45;17.50;58.20
21493;DHT22;10908;50.690;4.400;2023-06-14T04:10:12;17.50;58.40
21493;DHT22;10908;50.690;4.400;2023-06-14T04:12:38;18.10;57.00
21493;DHT22;10908;50.690;4.400;2023-06-14T04:15:04;18.50;55.80
21493;DHT22;10908;50.690;4.400;2023-06-14T04:17:32;18.90;54.70
21493;DHT22;10908;50.690;4.400;2023-06-14T04:19:59;19.10;53.50
21493;DHT22;10908;50.690;4.400;2023-06-14T04:22:25;18.90;53.90
21493;DHT22;10908;50.690;4.400;2023-06-14T04:24:54;18.70;54.40
21493;DHT22;10908;50.690;4.400;2023-06-14T04:27:22;19.20;53.50
21493;DHT22;10908;50.690;4.400;2023-06-14T04:29:51;19.90;52.30
21493;DHT22;10908;50.690;4.400;2023-06-14T04:32:27;19.90;51.40
21493;DHT22;10908;50.690;4.400;2023-06-14T04:34:55;19.90;51.90
21493;DHT22;10908;50.690;4.400;2023-06-14T04:37:22;19.90;51.80
21493;DHT22;10908;50.690;4.400;2023-06-14T04:39:48;19.80;52.20
21493;DHT22;10908;50.690;4.400;2023-06-14T04:42:14;19.80;51.90
21493;DHT22;10908;50.690;4.400;2023-06-14T04:44:42;19.80;51.80
21493;DHT22;10908;50.690;4.400;2023-06-14T04:47:09;19.70;52.50
21493;DHT22;10908;50.690;4.400;2023-06-14T04:49:35;20.20;50.70
21493;DHT22;10908;50.690;4.400;2023-06-14T04:52:00;20.20;50.70
21493;DHT22;10908;50.690;4.400;2023-06-14T04:54:27;20.30;50.50
21493;DHT22;10908;50.690;4.400;2023-06-14T04:56:53;20.70;50.00
21493;DHT22;10908;50.690;4.400;2023-06-14T04:59:21;20.90;49.40
21493;DHT22;10908;50.690;4.400;2023-06-14T05:01:49;21.40;48.20
21493;DHT22;10908;50.690;4.400;2023-06-14T05:04:15;21.10;48.60
21493;DHT22;10908;50.690;4.400;2023-06-14T05:06:44;20.70;49.50
21493;DHT22;10908;50.690;4.400;2023-06-14T05:09:12;20.60;50.50
21493;DHT22;10908;50.690;4.400;2023-06-14T05:11:38;20.40;51.30
21493;DHT22;10908;50.690;4.400;2023-06-14T05:14:03;20.40;51.40
21493;DHT22;10908;50.690;4.400;2023-06-14T05:16:29;20.20;51.60
21493;DHT22;10908;50.690;4.400;2023-06-14T05:18:55;20.00;52.10
21493;DHT22;10908;50.690;4.400;2023-06-14T05:21:21;19.90;52.70
21493;DHT22;10908;50.690;4.400;2023-06-14T05:23:46;19.80;52.80
21493;DHT22;10908;50.690;4.400;2023-06-14T05:26:12;19.60;52.80
21493;DHT22;10908;50.690;4.400;2023-06-14T05:28:38;19.60;54.20
21493;DHT22;10908;50.690;4.400;2023-06-14T05:31:03;19.40;53.80
21493;DHT22;10908;50.690;4.400;2023-06-14T05:33:29;19.20;54.80
21493;DHT22;10908;50.690;4.400;2023-06-14T05:35:55;19.20;54.80
21493;DHT22;10908;50.690;4.400;2023-06-14T05:38:21;19.20;55.30
21493;DHT22;10908;50.690;4.400;2023-06-14T05:40:46;19.20;55.60
21493;DHT22;10908;50.690;4.400;2023-06-14T05:43:12;19.10;55.50
21493;DHT22;10908;50.690;4.400;2023-06-14T05:45:38;19.30;55.90
21493;DHT22;10908;50.690;4.400;2023-06-14T05:48:03;19.10;56.10
21493;DHT22;10908;50.690;4.400;2023-06-14T05:50:30;19.20;56.20
21493;DHT22;10908;50.690;4.400;2023-06-14T05:52:55;19.30;56.20
21493;DHT22;10908;50.690;4.400;2023-06-14T05:55:21;19.40;55.80
21493;DHT22;10908;50.690;4.400;2023-06-14T05:57:47;19.30;56.50
21493;DHT22;10908;50.690;4.400;2023-06-14T06:00:14;19.20;56.70
21493;DHT22;10908;50.690;4.400;2023-06-14T06:02:44;19.00;56.20
21493;DHT22;10908;50.690;4.400;2023-06-14T06:05:11;19.20;56.70
21493;DHT22;10908;50.690;4.400;2023-06-14T06:07:37;19.40;56.80
21493;DHT22;10908;50.690;4.400;2023-06-14T06:10:04;19.50;56.40
21493;DHT22;10908;50.690;4.400;2023-06-14T06:12:30;19.80;56.50
21493;DHT22;10908;50.690;4.400;2023-06-14T06:14:56;20.10;54.80
21493;DHT22;10908;50.690;4.400;2023-06-14T06:17:22;20.30;53.90
21493;DHT22;10908;50.690;4.400;2023-06-14T06:19:48;20.00;53.40
21493;DHT22;10908;50.690;4.400;2023-06-14T06:22:13;19.90;54.20
21493;DHT22;10908;50.690;4.400;2023-06-14T06:24:39;19.70;54.70
21493;DHT22;10908;50.690;4.400;2023-06-14T06:27:05;19.80;55.40
21493;DHT22;10908;50.690;4.400;2023-06-14T06:29:33;20.00;54.60
21493;DHT22;10908;50.690;4.400;2023-06-14T06:31:58;20.10;55.10
21493;DHT22;10908;50.690;4.400;2023-06-14T06:34:24;20.10;55.40
21493;DHT22;10908;50.690;4.400;2023-06-14T06:36:49;20.30;54.40
21493;DHT22;10908;50.690;4.400;2023-06-14T06:39:15;20.40;54.00
21493;DHT22;10908;50.690;4.400;2023-06-14T06:41:41;20.30;53.00
21493;DHT22;10908;50.690;4.400;2023-06-14T06:44:07;20.40;53.60
21493;DHT22;10908;50.690;4.400;2023-06-14T06:46:33;20.30;53.30
21493;DHT22;10908;50.690;4.400;2023-06-14T06:48:59;20.50;53.40
21493;DHT22;10908;50.690;4.400;2023-06-14T06:51:25;20.70;52.90
21493;DHT22;10908;50.690;4.400;2023-06-14T06:53:54;20.80;53.10
21493;DHT22;10908;50.690;4.400;2023-06-14T06:56:21;20.80;51.40
21493;DHT22;10908;50.690;4.400;2023-06-14T06:58:51;20.70;52.70
21493;DHT22;10908;50.690;4.400;2023-06-14T07:01:17;20.80;53.60
21493;DHT22;10908;50.690;4.400;2023-06-14T07:03:44;20.80;52.00
21493;DHT22;10908;50.690;4.400;2023-06-14T07:06:09;20.70;53.00
21493;DHT22;10908;50.690;4.400;2023-06-14T07:08:36;20.60;52.50
21493;DHT22;10908;50.690;4.400;2023-06-14T07:11:04;20.70;53.50
21493;DHT22;10908;50.690;4.400;2023-06-14T07:13:30;20.90;53.90
21493;DHT22;10908;50.690;4.400;2023-06-14T07:15:58;20.90;53.70
21493;DHT22;10908;50.690;4.400;2023-06-14T07:18:24;21.00;53.50
21493;DHT22;10908;50.690;4.400;2023-06-14T07:20:50;21.00;52.70
21493;DHT22;10908;50.690;4.400;2023-06-14T07:23:16;20.80;53.10
21493;DHT22;10908;50.690;4.400;2023-06-14T07:25:41;20.90;53.50
21493;DHT22;10908;50.690;4.400;2023-06-14T07:28:07;20.80;53.00
21493;DHT22;10908;50.690;4.400;2023-06-14T07:30:33;21.10;53.70
21493;DHT22;10908;50.690;4.400;2023-06-14T07:32:58;21.40;53.50
21493;DHT22;10908;50.690;4.400;2023-06-14T07:35:24;21.40;52.00
21493;DHT22;10908;50.690;4.400;2023-06-14T07:37:49;21.50;52.90
21493;DHT22;10908;50.690;4.400;2023-06-14T07:40:15;21.70;53.10
21493;DHT22;10908;50.690;4.400;2023-06-14T07:42:41;21.80;52.00
21493;DHT22;10908;50.690;4.400;2023-06-14T07:45:07;21.90;51.80
21493;DHT22;10908;50.690;4.400;2023-06-14T07:47:33;22.00;52.50
21493;DHT22;10908;50.690;4.400;2023-06-14T07:49:59;21.90;51.50
21493;DHT22;10908;50.690;4.400;2023-06-14T07:52:25;22.10;51.10
21493;DHT22;10908;50.690;4.400;2023-06-14T07:54:51;22.00;49.20
21493;DHT22;10908;50.690;4.400;2023-06-14T07:57:17;22.00;48.50
21493;DHT22;10908;50.690;4.400;2023-06-14T07:59:45;21.90;48.20
21493;DHT22;10908;50.690;4.400;2023-06-14T08:02:11;22.20;49.30
21493;DHT22;10908;50.690;4.400;2023-06-14T08:04:36;22.40;50.70
21493;DHT22;10908;50.690;4.400;2023-06-14T08:07:02;22.50;48.00
21493;DHT22;10908;50.690;4.400;2023-06-14T08:09:28;22.40;48.90
21493;DHT22;10908;50.690;4.400;2023-06-14T08:11:55;22.50;48.50
21493;DHT22;10908;50.690;4.400;2023-06-14T08:14:21;22.50;47.90
21493;DHT22;10908;50.690;4.400;2023-06-14T08:16:46;22.50;49.10
21493;DHT22;10908;50.690;4.400;2023-06-14T08:19:12;22.70;48.70
21493;DHT22;10908;50.690;4.400;2023-06-14T08:21:38;22.70;47.90
21493;DHT22;10908;50.690;4.400;2023-06-14T08:24:03;22.80;48.60
21493;DHT22;10908;50.690;4.400;2023-06-14T08:26:30;22.90;47.40
21493;DHT22;10908;50.690;4.400;2023-06-14T08:28:57;22.90;45.80
21493;DHT22;10908;50.690;4.400;2023-06-14T08:31:23;23.00;47.00
21493;DHT22;10908;50.690;4.400;2023-06-14T08:33:50;23.00;46.30
21493;DHT22;10908;50.690;4.400;2023-06-14T08:36:16;23.20;46.70
21493;DHT22;10908;50.690;4.400;2023-06-14T08:38:42;23.40;45.40
21493;DHT22;10908;50.690;4.400;2023-06-14T08:41:08;23.40;44.50
21493;DHT22;10908;50.690;4.400;2023-06-14T08:43:37;23.50;42.60
21493;DHT22;10908;50.690;4.400;2023-06-14T08:46:04;23.40;42.50
21493;DHT22;10908;50.690;4.400;2023-06-14T08:48:32;23.50;42.50
21493;DHT22;10908;50.690;4.400;2023-06-14T08:51:01;23.60;42.50
21493;DHT22;10908;50.690;4.400;2023-06-14T08:53:31;23.60;42.20
21493;DHT22;10908;50.690;4.400;2023-06-14T08:55:59;23.70;41.00
21493;DHT22;10908;50.690;4.400;2023-06-14T08:58:28;23.70;42.40
21493;DHT22;10908;50.690;4.400;2023-06-14T09:00:57;23.80;41.70
21493;DHT22;10908;50.690;4.400;2023-06-14T09:03:24;23.90;42.90
21493;DHT22;10908;50.690;4.400;2023-06-14T09:05:56;24.10;40.50
21493;DHT22;10908;50.690;4.400;2023-06-14T09:08:25;24.10;41.00
21493;DHT22;10908;50.690;4.400;2023-06-14T09:10:51;24.10;41.10
21493;DHT22;10908;50.690;4.400;2023-06-14T09:13:18;24.10;41.80
21493;DHT22;10908;50.690;4.400;2023-06-14T09:15:43;24.20;42.30
21493;DHT22;10908;50.690;4.400;2023-06-14T09:18:09;24.30;43.50
21493;DHT22;10908;50.690;4.400;2023-06-14T09:20:35;24.30;42.30
21493;DHT22;10908;50.690;4.400;2023-06-14T09:23:01;24.30;43.50
21493;DHT22;10908;50.690;4.400;2023-06-14T09:25:28;24.40;43.10
21493;DHT22;10908;50.690;4.400;2023-06-14T09:27:53;24.40;42.40
21493;DHT22;10908;50.690;4.400;2023-06-14T09:30:20;24.40;42.80
21493;DHT22;10908;50.690;4.400;2023-06-14T09:32:46;24.30;41.90
21493;DHT22;10908;50.690;4.400;2023-06-14T09:35:11;24.30;42.40
21493;DHT22;10908;50.690;4.400;2023-06-14T09:37:37;24.40;41.90
21493;DHT22;10908;50.690;4.400;2023-06-14T09:40:04;24.40;42.40
21493;DHT22;10908;50.690;4.400;2023-06-14T09:42:31;24.60;42.00
21493;DHT22;10908;50.690;4.400;2023-06-14T09:44:57;24.70;41.40
21493;DHT22;10908;50.690;4.400;2023-06-14T09:47:23;24.80;41.70
21493;DHT22;10908;50.690;4.400;2023-06-14T09:49:50;24.80;42.40
21493;DHT22;10908;50.690;4.400;2023-06-14T09:52:20;25.00;41.10
21493;DHT22;10908;50.690;4.400;2023-06-14T09:54:47;25.00;41.50
21493;DHT22;10908;50.690;4.400;2023-06-14T09:57:21;24.90;41.70
21493;DHT22;10908;50.690;4.400;2023-06-14T09:59:48;25.00;41.00
21493;DHT22;10908;50.690;4.400;2023-06-14T10:02:32;24.90;40.10
21493;DHT22;10908;50.690;4.400;2023-06-14T10:05:11;24.90;39.10
21493;DHT22;10908;50.690;4.400;2023-06-14T10:08:00;25.00;37.80
21493;DHT22;10908;50.690;4.400;2023-06-14T10:10:28;25.10;39.30
21493;DHT22;10908;50.690;4.400;2023-06-14T10:12:54;25.30;40.30
21493;DHT22;10908;50.690;4.400;2023-06-14T10:18:35;25.20;38.80
21493;DHT22;10908;50.690;4.400;2023-06-14T10:21:28;25.30;38.10
21493;DHT22;10908;50.690;4.400;2023-06-14T10:23:59;25.40;37.50
21493;DHT22;10908;50.690;4.400;2023-06-14T10:26:26;25.30;35.80
21493;DHT22;10908;50.690;4.400;2023-06-14T10:29:00;25.10;36.70
21493;DHT22;10908;50.690;4.400;2023-06-14T10:31:48;24.90;37.50
21493;DHT22;10908;50.690;4.400;2023-06-14T10:34:28;25.00;39.40
21493;DHT22;10908;50.690;4.400;2023-06-14T10:37:01;25.20;39.80
21493;DHT22;10908;50.690;4.400;2023-06-14T10:39:28;25.20;38.90
21493;DHT22;10908;50.690;4.400;2023-06-14T10:41:55;25.10;38.80
21493;DHT22;10908;50.690;4.400;2023-06-14T10:46:48;24.90;38.50
21493;DHT22;10908;50.690;4.400;2023-06-14T10:49:17;25.10;39.60
21493;DHT22;10908;50.690;4.400;2023-06-14T10:51:50;25.30;38.30
21493;DHT22;10908;50.690;4.400;2023-06-14T10:54:16;25.30;38.30
21493;DHT22;10908;50.690;4.400;2023-06-14T10:56:52;25.30;38.40
21493;DHT22;10908;50.690;4.400;2023-06-14T10:59:18;25.30;37.20
21493;DHT22;10908;50.690;4.400;2023-06-14T11:01:57;25.10;36.60
21493;DHT22;10908;50.690;4.400;2023-06-14T11:04:52;25.20;37.20
21493;DHT22;10908;50.690;4.400;2023-06-14T11:12:49;25.40;36.00
21493;DHT22;10908;50.690;4.400;2023-06-14T11:15:15;25.40;35.00
21493;DHT22;10908;50.690;4.400;2023-06-14T11:17:51;25.20;35.80
21493;DHT22;10908;50.690;4.400;2023-06-14T11:20:19;25.10;36.80
21493;DHT22;10908;50.690;4.400;2023-06-14T11:22:45;25.30;37.90
21493;DHT22;10908;50.690;4.400;2023-06-14T11:25:14;25.30;35.80
21493;DHT22;10908;50.690;4.400;2023-06-14T11:27:43;25.20;36.70
21493;DHT22;10908;50.690;4.400;2023-06-14T11:30:09;25.20;38.50
21493;DHT22;10908;50.690;4.400;2023-06-14T11:32:36;25.40;38.30
21493;DHT22;10908;50.690;4.400;2023-06-14T11:35:03;25.60;37.80
21493;DHT22;10908;50.690;4.400;2023-06-14T11:37:30;25.90;36.90
21493;DHT22;10908;50.690;4.400;2023-06-14T11:39:58;26.00;37.20
21493;DHT22;10908;50.690;4.400;2023-06-14T11:42:26;26.10;36.80
21493;DHT22;10908;50.690;4.400;2023-06-14T11:44:53;26.00;36.20
21493;DHT22;10908;50.690;4.400;2023-06-14T11:47:19;25.70;36.30
21493;DHT22;10908;50.690;4.400;2023-06-14T11:49:45;25.60;36.50
21493;DHT22;10908;50.690;4.400;2023-06-14T11:52:11;25.60;36.20
21493;DHT22;10908;50.690;4.400;2023-06-14T11:54:38;25.50;35.50
21493;DHT22;10908;50.690;4.400;2023-06-14T11:57:06;25.30;35.50
21493;DHT22;10908;50.690;4.400;2023-06-14T11:59:41;25.30;35.90
21493;DHT22;10908;50.690;4.400;2023-06-14T12:02:09;25.30;35.20
21493;DHT22;10908;50.690;4.400;2023-06-14T12:04:35;25.50;35.20
21493;DHT22;10908;50.690;4.400;2023-06-14T12:07:15;25.50;37.10
21493;DHT22;10908;50.690;4.400;2023-06-14T12:12:26;25.50;36.10
21493;DHT22;10908;50.690;4.400;2023-06-14T12:14:53;25.80;36.30
21493;DHT22;10908;50.690;4.400;2023-06-14T12:17:19;25.70;36.60
21493;DHT22;10908;50.690;4.400;2023-06-14T12:19:46;25.80;37.50
21493;DHT22;10908;50.690;4.400;2023-06-14T12:22:12;25.90;35.80
21493;DHT22;10908;50.690;4.400;2023-06-14T12:24:38;26.00;36.70
21493;DHT22;10908;50.690;4.400;2023-06-14T12:27:05;26.00;36.40
21493;DHT22;10908;50.690;4.400;2023-06-14T12:29:31;26.10;35.80
21493;DHT22;10908;50.690;4.400;2023-06-14T12:31:57;26.00;35.10
21493;DHT22;10908;50.690;4.400;2023-06-14T12:34:26;25.60;34.60
21493;DHT22;10908;50.690;4.400;2023-06-14T12:36:53;25.50;34.70
21493;DHT22;10908;50.690;4.400;2023-06-14T12:39:19;25.50;36.70
21493;DHT22;10908;50.690;4.400;2023-06-14T12:41:46;25.30;35.80
21493;DHT22;10908;50.690;4.400;2023-06-14T12:44:12;25.60;37.20
21493;DHT22;10908;50.690;4.400;2023-06-14T12:46:39;25.80;36.30
21493;DHT22;10908;50.690;4.400;2023-06-14T12:49:07;25.90;35.20
21493;DHT22;10908;50.690;4.400;2023-06-14T12:51:33;26.00;35.20
21493;DHT22;10908;50.690;4.400;2023-06-14T12:53:58;26.10;34.90
21493;DHT22;10908;50.690;4.400;2023-06-14T12:56:24;26.30;34.90
21493;DHT22;10908;50.690;4.400;2023-06-14T12:58:50;26.20;34.10
21493;DHT22;10908;50.690;4.400;2023-06-14T13:01:16;26.20;34.60
21493;DHT22;10908;50.690;4.400;2023-06-14T13:03:41;26.20;35.20
21493;DHT22;10908;50.690;4.400;2023-06-14T13:06:07;26.20;33.30
21493;DHT22;10908;50.690;4.400;2023-06-14T13:08:32;26.10;32.70
21493;DHT22;10908;50.690;4.400;2023-06-14T13:10:58;26.00;33.30
21493;DHT22;10908;50.690;4.400;2023-06-14T13:13:24;26.10;34.40
21493;DHT22;10908;50.690;4.400;2023-06-14T13:15:50;26.00;33.30
21493;DHT22;10908;50.690;4.400;2023-06-14T13:18:16;25.80;33.70
21493;DHT22;10908;50.690;4.400;2023-06-14T13:20:42;26.00;34.10
21493;DHT22;10908;50.690;4.400;2023-06-14T13:23:09;26.00;34.10
21493;DHT22;10908;50.690;4.400;2023-06-14T13:25:36;25.90;35.00
21493;DHT22;10908;50.690;4.400;2023-06-14T13:28:04;26.00;34.50
21493;DHT22;10908;50.690;4.400;2023-06-14T13:30:31;25.90;34.90
21493;DHT22;10908;50.690;4.400;2023-06-14T13:32:57;26.10;34.70
21493;DHT22;10908;50.690;4.400;2023-06-14T13:35:24;26.10;34.90
21493;DHT22;10908;50.690;4.400;2023-06-14T13:37:50;26.10;33.90
21493;DHT22;10908;50.690;4.400;2023-06-14T13:40:16;26.00;33.80
21493;DHT22;10908;50.690;4.400;2023-06-14T13:42:42;25.80;33.80
21493;DHT22;10908;50.690;4.400;2023-06-14T13:45:11;25.80;34.30
21493;DHT22;10908;50.690;4.400;2023-06-14T13:47:41;26.00;33.70
21493;DHT22;10908;50.690;4.400;2023-06-14T13:50:11;26.00;33.80
21493;DHT22;10908;50.690;4.400;2023-06-14T13:52:38;25.90;32.70
21493;DHT22;10908;50.690;4.400;2023-06-14T13:55:05;25.90;33.10
21493;DHT22;10908;50.690;4.400;2023-06-14T13:57:32;26.10;33.50
21493;DHT22;10908;50.690;4.400;2023-06-14T14:00:01;26.00;33.00
21493;DHT22;10908;50.690;4.400;2023-06-14T14:02:30;26.00;33.50
21493;DHT22;10908;50.690;4.400;2023-06-14T14:04:56;26.10;32.60
21493;DHT22;10908;50.690;4.400;2023-06-14T14:07:22;25.90;31.90
21493;DHT22;10908;50.690;4.400;2023-06-14T14:09:49;25.90;32.80
21493;DHT22;10908;50.690;4.400;2023-06-14T14:12:15;25.90;32.90
21493;DHT22;10908;50.690;4.400;2023-06-14T14:14:40;26.10;33.80
21493;DHT22;10908;50.690;4.400;2023-06-14T14:17:08;26.10;32.60
21493;DHT22;10908;50.690;4.400;2023-06-14T14:19:34;25.90;32.60
21493;DHT22;10908;50.690;4.400;2023-06-14T14:22:00;25.80;34.30
21493;DHT22;10908;50.690;4.400;2023-06-14T14:24:26;26.00;33.60
21493;DHT22;10908;50.690;4.400;2023-06-14T14:26:52;26.10;33.10
21493;DHT22;10908;50.690;4.400;2023-06-14T14:29:19;26.10;33.60
21493;DHT22;10908;50.690;4.400;2023-06-14T14:31:45;26.20;33.60
21493;DHT22;10908;50.690;4.400;2023-06-14T14:34:11;26.30;33.40
21493;DHT22;10908;50.690;4.400;2023-06-14T14:36:36;26.30;34.00
21493;DHT22;10908;50.690;4.400;2023-06-14T14:39:06;26.40;34.00
21493;DHT22;10908;50.690;4.400;2023-06-14T14:41:32;26.60;33.30
21493;DHT22;10908;50.690;4.400;2023-06-14T14:43:57;26.60;32.80
21493;DHT22;10908;50.690;4.400;2023-06-14T14:46:24;26.30;32.30
21493;DHT22;10908;50.690;4.400;2023-06-14T14:48:50;26.20;32.90
21493;DHT22;10908;50.690;4.400;2023-06-14T14:51:16;26.20;32.50
21493;DHT22;10908;50.690;4.400;2023-06-14T14:53:42;26.30;33.20
21493;DHT22;10908;50.690;4.400;2023-06-14T14:56:07;26.30;31.60
21493;DHT22;10908;50.690;4.400;2023-06-14T14:58:33;26.20;31.30
21493;DHT22;10908;50.690;4.400;2023-06-14T15:00:58;26.20;32.40
21493;DHT22;10908;50.690;4.400;2023-06-14T15:03:24;26.20;32.20
21493;DHT22;10908;50.690;4.400;2023-06-14T15:05:50;26.20;32.00
21493;DHT22;10908;50.690;4.400;2023-06-14T15:08:15;26.30;31.70
21493;DHT22;10908;50.690;4.400;2023-06-14T15:10:41;26.40;33.30
21493;DHT22;10908;50.690;4.400;2023-06-14T15:13:07;26.50;31.90
21493;DHT22;10908;50.690;4.400;2023-06-14T15:15:34;26.40;30.80
21493;DHT22;10908;50.690;4.400;2023-06-14T15:18:08;26.10;31.40
21493;DHT22;10908;50.690;4.400;2023-06-14T15:20:35;26.10;31.40
21493;DHT22;10908;50.690;4.400;2023-06-14T15:23:00;26.00;30.50
21493;DHT22;10908;50.690;4.400;2023-06-14T15:25:30;26.00;31.40
21493;DHT22;10908;50.690;4.400;2023-06-14T15:27:57;26.10;31.00
21493;DHT22;10908;50.690;4.400;2023-06-14T15:30:22;26.20;32.20
21493;DHT22;10908;50.690;4.400;2023-06-14T15:32:48;26.20;30.70
21493;DHT22;10908;50.690;4.400;2023-06-14T15:35:30;26.00;31.60
21493;DHT22;10908;50.690;4.400;2023-06-14T15:37:55;26.00;31.80
21493;DHT22;10908;50.690;4.400;2023-06-14T15:40:21;26.10;30.20
21493;DHT22;10908;50.690;4.400;2023-06-14T15:54:59;26.10;30.20
21493;DHT22;10908;50.690;4.400;2023-06-14T15:57:29;25.90;30.70